Aérodrome :
LOGIN :

S'inscrire | Disclaimer

   EN    FR    IT 

 










Légende :    VFR   VFR Marginal   IFR   IFR Intensif   IFR Très Intensif
Visi : 
Plafond : 
>= 8 km
>= 3000ft
5 à 8 km
1000 à 3000 ft
1500m à 5 km
500 à 1000 ft
800 à 1500m
200 à 500 ft
< 800m
< 200 ft
Symboles :   Orages  Brouillard  Fortes neiges  Fortes précipitations  Vent > 20 kt
SIGMETs :   Divers  Orages  Givrage  Turbulence  Onde Orograph.  Cendres Volcan.






- Altitude de l'aérodrome : 187 ft


ETNW - Wunstorf AB

DERNIER METAR :
  • 271020Z 24010KT 9999 BKN017 BKN130 04/00 Q1001 WHT BLU TEMPO GRN

METARs EXPIRÉS :
  • 270920Z 24011KT 9999 BKN015 BKN140 04/00 Q1001 WHT BLU TEMPO GRN
  • 270820Z 24010KT 9999 FEW013 SCT150 BKN190 03/00 Q1002 BLU BLU TEMPO GRN
  • 270740Z 24007KT 9999 FEW012 SCT026 BKN180 03/00 Q1002 BLU BLU TEMPO GRN

TAF TAF ETNW
Valide du 27 à 06h jusqu'au 28 à 06h UTC


270500Z 2706/2806 22010KT 9999 NSW SCT010 BKN030
TEMPO 2706/2712 25012G22KT 4000 -SHRASN BKN010TCU
BECMG 2716/2718 26008KT 7000 -RASN SCT010 BKN020
TEMPO 2718/2804 27012KT 1000 SN BKN003 BKN015
BECMG 2802/2804 27010G20KT 8000 NSW SCT012 SCT030
TEMPO 2804/2806 25008KT 5000 BR FEW005 BY ETGL



MET'MAP, la Météo Aéronautique d'un coup d'oeil ! - Copyright ORBIFLY Décembre 2007 - Disclaimer

ORBIFLY MET'MAP TEAM :

Programmation & Développement : Alexandra Zaïnal
Sur une idée originale de : Baudouin d'Aumeries
Assistance à la programmation : Marc-Olivier Méhu
Soutien technique & logistique : Manuel Goepfert

Contact : metmap@orbifly.com




SOURCES & CREDITS :

   NOAA